Time;durP1;ratioP1;P1;durP2;ratioP2;P2;SDS_P1;SDS_P2;PMS_P1;PMS_P2;Temp;Humidity;BMP_temperature;BMP_pressure;BME280_temperature;BME280_humidity;BME280_pressure;Samples;Min_cycle;Max_cycle;Signal;HPM_P1;HPM_P2
2023/01/04 00:01:02;;;;;;;7.75;1.80;;;5.20;99.90;;;;;;5077537;28;20020;-63
2023/01/04 00:03:30;;;;;;;7.90;1.90;;;5.20;99.90;;;;;;5068153;28;20025;-64
2023/01/04 00:05:58;;;;;;;5.85;1.30;;;5.30;99.90;;;;;;5059013;28;20023;-63
2023/01/04 00:08:23;;;;;;;3.17;1.10;;;5.30;99.90;;;;;;5070596;28;20037;-62
2023/01/04 00:10:49;;;;;;;12.52;1.67;;;5.40;99.90;;;;;;5065274;28;20035;-63
2023/01/04 00:13:14;;;;;;;6.30;1.60;;;5.50;99.90;;;;;;5069310;28;20025;-64
2023/01/04 00:15:40;;;;;;;6.18;1.42;;;5.60;99.90;;;;;;5070037;28;20441;-64
2023/01/04 00:18:06;;;;;;;5.18;1.20;;;5.60;99.90;;;;;;5063784;28;20059;-63
2023/01/04 00:20:32;;;;;;;2.78;1.10;;;5.70;99.90;;;;;;5064198;28;20039;-65
2023/01/04 00:22:57;;;;;;;4.32;0.95;;;5.70;99.90;;;;;;5063888;28;20070;-64
2023/01/04 00:25:23;;;;;;;8.02;1.10;;;5.80;99.90;;;;;;5061393;28;20125;-63
2023/01/04 00:27:52;;;;;;;6.20;1.05;;;5.80;99.90;;;;;;5070102;28;20535;-63
2023/01/04 00:30:18;;;;;;;4.50;1.02;;;5.90;99.90;;;;;;5069453;28;20031;-63
2023/01/04 00:32:44;;;;;;;6.15;1.42;;;6.00;99.90;;;;;;5058140;28;20021;-63
2023/01/04 00:35:10;;;;;;;2.70;0.95;;;6.00;99.90;;;;;;5048527;28;20083;-64
2023/01/04 00:37:35;;;;;;;2.38;1.10;;;6.10;99.90;;;;;;5069584;28;20036;-63
2023/01/04 00:40:01;;;;;;;4.30;0.90;;;6.10;99.90;;;;;;5067537;28;20488;-63
2023/01/04 00:42:26;;;;;;;3.15;1.10;;;6.10;99.90;;;;;;5070552;28;20059;-64
2023/01/04 00:44:52;;;;;;;1.95;1.05;;;6.20;99.90;;;;;;5072627;28;20035;-64
2023/01/04 00:47:17;;;;;;;9.10;1.75;;;6.20;99.90;;;;;;5073867;28;20124;-64
2023/01/04 00:49:43;;;;;;;5.38;1.23;;;6.30;99.90;;;;;;5068569;28;20092;-64
2023/01/04 00:52:09;;;;;;;8.68;1.30;;;6.30;99.90;;;;;;5073265;28;20074;-65
2023/01/04 00:54:34;;;;;;;4.20;0.95;;;6.30;99.90;;;;;;5073293;28;20020;-64
2023/01/04 00:57:00;;;;;;;2.75;1.00;;;6.30;99.90;;;;;;5068021;28;20040;-63
2023/01/04 00:59:26;;;;;;;4.82;1.27;;;6.30;99.90;;;;;;5054973;28;20031;-63
2023/01/04 01:01:52;;;;;;;7.65;1.17;;;6.40;99.90;;;;;;5069998;28;20029;-64
2023/01/04 01:04:21;;;;;;;1.98;1.02;;;6.40;99.90;;;;;;5069742;28;20024;-63
2023/01/04 01:06:47;;;;;;;3.30;1.15;;;6.40;99.90;;;;;;5055571;28;20060;-63
2023/01/04 01:09:13;;;;;;;5.65;1.10;;;6.40;99.90;;;;;;5067448;28;20036;-63
2023/01/04 01:11:39;;;;;;;3.15;1.17;;;6.50;99.90;;;;;;5075182;28;20036;-64
2023/01/04 01:14:06;;;;;;;4.95;1.63;;;6.40;99.90;;;;;;5071369;28;20028;-63
2023/01/04 01:16:32;;;;;;;9.35;1.30;;;6.50;99.90;;;;;;5069259;28;20446;-64
2023/01/04 01:18:58;;;;;;;3.33;0.65;;;6.50;99.90;;;;;;5063597;28;20119;-63
2023/01/04 01:21:26;;;;;;;1.65;1.08;;;6.50;99.90;;;;;;5071370;28;20028;-63
2023/01/04 01:23:54;;;;;;;2.65;0.82;;;6.50;99.90;;;;;;5070650;28;20675;-63
2023/01/04 01:26:21;;;;;;;2.50;0.95;;;6.50;99.90;;;;;;5055527;28;20024;-64
2023/01/04 01:28:47;;;;;;;4.03;0.80;;;6.50;99.90;;;;;;5067899;28;20028;-63
2023/01/04 01:31:22;;;;;;;4.70;2.13;;;6.50;99.90;;;;;;5063695;28;20036;-64
2023/01/04 01:33:49;;;;;;;5.10;1.45;;;6.60;99.90;;;;;;5073661;28;20029;-64
2023/01/04 01:36:16;;;;;;;15.48;1.30;;;6.60;99.90;;;;;;5072238;28;20065;-63
2023/01/04 01:38:43;;;;;;;7.93;1.63;;;6.70;99.90;;;;;;5066060;28;20134;-64
2023/01/04 01:41:19;;;;;;;1.85;0.70;;;6.70;99.90;;;;;;5068751;28;20029;-64
2023/01/04 01:44:05;;;;;;;11.20;1.25;;;6.70;99.90;;;;;;5071359;28;20028;-64
2023/01/04 01:46:41;;;;;;;4.28;1.00;;;6.80;99.90;;;;;;5070497;28;20131;-63
2023/01/04 01:49:18;;;;;;;6.97;1.35;;;6.80;99.90;;;;;;5051312;28;20538;-65
2023/01/04 01:51:44;;;;;;;7.40;1.15;;;6.80;99.90;;;;;;5073057;28;20032;-64
2023/01/04 01:54:16;;;;;;;4.50;1.00;;;6.90;99.90;;;;;;5066062;28;20040;-64
2023/01/04 01:56:44;;;;;;;2.83;0.93;;;6.90;99.90;;;;;;5065797;28;20047;-64
2023/01/04 01:59:12;;;;;;;4.97;1.58;;;6.90;99.90;;;;;;5066661;28;20060;-64
2023/01/04 02:01:37;;;;;;;5.95;1.10;;;6.90;99.90;;;;;;5068072;28;20032;-64
2023/01/04 02:04:04;;;;;;;4.93;1.02;;;6.90;99.90;;;;;;5055983;28;20033;-64
2023/01/04 02:06:40;;;;;;;9.85;1.00;;;6.90;99.90;;;;;;5079278;28;20561;-64
2023/01/04 02:09:07;;;;;;;8.13;1.65;;;6.90;99.90;;;;;;5078055;28;20043;-64
2023/01/04 02:11:32;;;;;;;7.53;1.50;;;6.90;99.90;;;;;;5075113;28;20151;-64
2023/01/04 02:17:03;;;;;;;6.93;1.33;;;6.90;99.90;;;;;;5071343;28;20044;-63
2023/01/04 02:20:05;;;;;;;1.55;1.00;;;6.90;99.90;;;;;;5072007;28;20041;-64
2023/01/04 02:22:59;;;;;;;6.28;1.30;;;6.90;99.90;;;;;;5056360;28;20042;-64
2023/01/04 02:25:42;;;;;;;9.45;1.80;;;6.90;99.90;;;;;;5078549;28;20622;-64
2023/01/04 02:28:46;;;;;;;6.97;1.17;;;6.90;99.90;;;;;;5072383;28;20116;-64
2023/01/04 02:31:43;;;;;;;5.30;1.42;;;6.90;99.90;;;;;;5007541;28;20124;-63
2023/01/04 02:34:11;;;;;;;10.68;1.40;;;6.90;99.90;;;;;;5079597;28;20031;-64
2023/01/04 02:37:03;;;;;;;6.55;1.63;;;7.00;99.90;;;;;;5085526;28;20021;-64
2023/01/04 02:39:55;;;;;;;12.55;1.60;;;6.90;99.90;;;;;;5082218;28;20032;-64
2023/01/04 02:45:23;;;;;;;11.77;1.33;;;6.90;99.90;;;;;;5076777;28;20065;-64
2023/01/04 02:50:48;;;;;;;;;;;6.90;99.90;;;;;;5071499;28;20035;-65
2023/01/04 02:53:19;;;;;;;6.85;2.30;;;6.90;99.90;;;;;;5074090;28;20488;-64
2023/01/04 02:56:34;;;;;;;3.80;1.58;;;6.90;99.90;;;;;;5073753;28;20028;-64
2023/01/04 02:59:40;;;;;;;13.27;2.53;;;7.00;99.90;;;;;;5054979;28;20028;-64
2023/01/04 03:08:24;;;;;;;1.88;1.05;;;7.00;99.90;;;;;;5070117;28;20444;-64
2023/01/04 03:11:03;;;;;;;9.05;1.42;;;7.00;99.90;;;;;;5069780;28;20117;-64
2023/01/04 03:13:41;;;;;;;5.47;1.20;;;7.00;99.90;;;;;;5064517;28;20026;-62
2023/01/04 03:16:19;;;;;;;9.00;1.27;;;7.00;99.90;;;;;;5045659;28;20028;-65
2023/01/04 03:18:49;;;;;;;7.38;1.98;;;7.10;99.90;;;;;;5065628;28;20398;-64
2023/01/04 03:21:17;;;;;;;4.93;1.30;;;7.10;99.90;;;;;;5068484;28;20124;-65
2023/01/04 03:35:37;;;;;;;9.88;1.08;;;7.20;99.90;;;;;;5070900;28;20043;-66
2023/01/04 03:50:25;;;;;;;7.25;1.48;;;7.20;99.90;;;;;;5066083;28;20035;-64
2023/01/04 03:52:52;;;;;;;4.38;1.10;;;7.20;99.90;;;;;;5069334;28;20036;-64
2023/01/04 03:55:18;;;;;;;0.75;0.75;;;7.20;99.90;;;;;;5069985;28;20507;-64
2023/01/04 03:57:45;;;;;;;6.25;1.27;;;7.20;99.90;;;;;;5070564;28;20087;-63
2023/01/04 04:00:15;;;;;;;3.42;0.85;;;7.30;99.90;;;;;;5061509;28;20545;-63
2023/01/04 04:02:41;;;;;;;4.88;1.40;;;7.30;99.90;;;;;;5063980;28;20485;-64
2023/01/04 04:10:41;;;;;;;2.25;1.02;;;7.30;99.90;;;;;;5064814;28;20154;-65
2023/01/04 04:13:06;;;;;;;10.68;1.35;;;7.40;99.90;;;;;;5070686;28;20050;-64
2023/01/04 04:15:32;;;;;;;4.88;0.70;;;7.50;99.90;;;;;;5071334;28;20123;-65
2023/01/04 04:17:58;;;;;;;4.00;0.70;;;7.50;99.90;;;;;;5070418;28;20032;-64
2023/01/04 04:20:23;;;;;;;2.85;0.75;;;7.60;99.90;;;;;;5081176;28;20032;-64
2023/01/04 04:22:49;;;;;;;3.40;0.70;;;7.60;99.90;;;;;;5062506;28;20013;-65
2023/01/04 04:25:14;;;;;;;2.00;0.50;;;7.60;99.90;;;;;;5071894;28;20055;-64
2023/01/04 04:27:40;;;;;;;3.15;0.80;;;7.70;99.90;;;;;;5068957;28;20359;-64
2023/01/04 04:30:06;;;;;;;3.03;0.63;;;7.70;99.90;;;;;;5069662;28;20036;-64
2023/01/04 04:32:32;;;;;;;1.80;0.40;;;7.70;99.90;;;;;;5070914;28;20127;-64
2023/01/04 04:34:57;;;;;;;1.42;0.55;;;7.80;99.90;;;;;;5067072;28;20158;-64
2023/01/04 04:37:25;;;;;;;1.00;0.50;;;7.80;99.90;;;;;;5071137;28;20037;-64
2023/01/04 04:39:51;;;;;;;1.85;0.70;;;7.80;99.90;;;;;;5068192;28;20490;-64
2023/01/04 04:42:16;;;;;;;1.35;0.45;;;7.80;99.90;;;;;;5068784;28;20027;-64
2023/01/04 04:44:42;;;;;;;2.47;0.85;;;7.80;99.90;;;;;;5069369;28;20496;-64
2023/01/04 04:47:08;;;;;;;1.95;0.52;;;7.80;99.90;;;;;;5069589;28;20089;-64
2023/01/04 04:49:33;;;;;;;2.95;0.88;;;7.80;99.90;;;;;;5070053;28;20031;-63
2023/01/04 04:51:59;;;;;;;1.40;0.75;;;7.80;99.90;;;;;;5068457;28;20021;-63
2023/01/04 04:54:24;;;;;;;3.05;0.88;;;7.80;99.90;;;;;;5073245;28;20035;-64
2023/01/04 04:56:50;;;;;;;2.08;1.08;;;7.80;99.90;;;;;;5071645;28;20048;-62
2023/01/04 04:59:16;;;;;;;0.70;0.50;;;7.80;99.90;;;;;;5066023;28;20074;-63
2023/01/04 05:01:41;;;;;;;2.55;0.50;;;7.80;99.90;;;;;;5068484;28;20644;-64
2023/01/04 05:04:07;;;;;;;1.95;0.50;;;7.90;99.90;;;;;;5069685;28;20016;-62
2023/01/04 05:06:33;;;;;;;0.35;0.30;;;7.80;99.90;;;;;;5067806;28;20108;-63
2023/01/04 05:08:59;;;;;;;1.60;0.50;;;7.90;99.90;;;;;;5068631;28;20489;-63
2023/01/04 05:14:09;;;;;;;1.83;0.60;;;7.80;99.90;;;;;;5064712;28;20039;-63
2023/01/04 05:16:34;;;;;;;1.70;0.60;;;7.90;99.90;;;;;;5066929;28;20028;-63
2023/01/04 05:19:00;;;;;;;2.50;0.50;;;7.90;99.90;;;;;;5070026;28;20081;-63
2023/01/04 05:21:26;;;;;;;0.52;0.30;;;7.90;99.90;;;;;;5068943;28;20035;-63
2023/01/04 05:23:51;;;;;;;0.95;0.70;;;7.90;99.90;;;;;;5069674;28;20037;-63
2023/01/04 05:26:17;;;;;;;1.42;0.60;;;7.90;99.90;;;;;;5073648;28;20033;-62
2023/01/04 05:28:42;;;;;;;1.50;0.68;;;7.90;99.90;;;;;;5065159;28;20473;-63
2023/01/04 05:31:08;;;;;;;2.15;0.65;;;7.90;99.90;;;;;;5068776;28;20024;-63
2023/01/04 05:33:33;;;;;;;0.60;0.40;;;7.90;99.90;;;;;;5071271;28;20052;-63
2023/01/04 05:36:01;;;;;;;0.47;0.40;;;7.90;99.90;;;;;;5059974;28;20024;-62
2023/01/04 05:38:27;;;;;;;0.40;0.30;;;7.90;99.90;;;;;;5069075;28;20093;-63
2023/01/04 05:40:53;;;;;;;0.90;0.52;;;7.90;99.90;;;;;;5067316;28;20028;-63
2023/01/04 05:43:20;;;;;;;0.68;0.60;;;7.90;99.90;;;;;;5070698;28;20039;-62
2023/01/04 05:45:52;;;;;;;0.75;0.43;;;7.90;99.90;;;;;;5060327;28;20680;-63
2023/01/04 05:48:18;;;;;;;1.80;0.40;;;8.00;99.90;;;;;;5069502;28;20024;-63
2023/01/04 05:50:47;;;;;;;1.10;0.60;;;8.00;99.90;;;;;;5068033;28;20028;-63
2023/01/04 05:53:16;;;;;;;1.33;0.40;;;8.00;99.90;;;;;;5067441;28;20440;-63
2023/01/04 05:55:42;;;;;;;0.52;0.38;;;8.00;99.90;;;;;;5038441;28;20032;-63
2023/01/04 05:58:08;;;;;;;3.20;0.57;;;8.00;99.90;;;;;;5067504;28;20386;-63
2023/01/04 06:00:33;;;;;;;1.17;0.70;;;8.10;99.90;;;;;;5066604;28;20505;-63
2023/01/04 06:02:59;;;;;;;0.22;0.22;;;8.10;99.90;;;;;;5065016;28;20028;-63
2023/01/04 06:05:25;;;;;;;0.90;0.55;;;8.10;99.90;;;;;;5068178;28;20110;-63
2023/01/04 06:07:51;;;;;;;0.30;0.25;;;8.10;99.90;;;;;;5051411;28;20039;-63
2023/01/04 06:10:17;;;;;;;1.63;0.40;;;8.10;99.90;;;;;;5067387;28;20025;-63
2023/01/04 06:12:44;;;;;;;0.30;0.22;;;8.20;99.90;;;;;;5068513;28;20028;-62
2023/01/04 06:15:10;;;;;;;0.32;0.30;;;8.20;99.90;;;;;;5066966;28;20035;-63
2023/01/04 06:17:37;;;;;;;0.80;0.38;;;8.20;99.90;;;;;;5067567;28;20033;-63
2023/01/04 06:20:04;;;;;;;0.40;0.20;;;8.20;99.90;;;;;;5075080;28;20039;-63
2023/01/04 06:22:31;;;;;;;1.70;0.40;;;8.20;99.90;;;;;;5071395;28;20029;-62
2023/01/04 06:24:57;;;;;;;0.40;0.30;;;8.20;99.90;;;;;;5075567;28;20021;-63
2023/01/04 06:27:23;;;;;;;2.47;0.28;;;8.20;99.90;;;;;;5066947;28;20047;-63
2023/01/04 06:29:48;;;;;;;0.55;0.30;;;8.30;99.90;;;;;;5074849;28;20040;-63
2023/01/04 06:32:14;;;;;;;0.15;0.15;;;8.30;99.90;;;;;;5072834;28;20436;-63
2023/01/04 06:34:39;;;;;;;1.23;0.35;;;8.30;99.90;;;;;;5075962;28;20038;-64
2023/01/04 06:37:05;;;;;;;1.65;1.42;;;8.30;99.90;;;;;;5067811;28;20043;-64
2023/01/04 06:39:31;;;;;;;0.30;0.30;;;8.30;99.90;;;;;;5074353;28;20032;-62
2023/01/04 06:41:57;;;;;;;2.60;0.60;;;8.30;99.90;;;;;;5071943;28;20462;-64
2023/01/04 06:44:22;;;;;;;0.40;0.40;;;8.30;99.90;;;;;;5075094;28;20069;-63
2023/01/04 06:46:48;;;;;;;0.20;0.20;;;8.30;99.90;;;;;;5071765;28;20025;-63
2023/01/04 06:49:13;;;;;;;0.60;0.30;;;8.30;99.90;;;;;;5075934;28;20025;-63
2023/01/04 06:51:39;;;;;;;2.10;0.52;;;8.40;99.90;;;;;;5075250;28;20059;-64
2023/01/04 06:54:05;;;;;;;1.95;0.40;;;8.40;99.90;;;;;;5072100;28;20379;-63
2023/01/04 06:56:31;;;;;;;2.92;0.47;;;8.40;99.90;;;;;;5073483;28;22888;-64
2023/01/04 06:58:57;;;;;;;0.30;0.30;;;8.50;99.90;;;;;;5072027;28;20025;-64
2023/01/04 07:01:22;;;;;;;2.95;0.30;;;8.50;99.90;;;;;;5073570;28;20024;-64
2023/01/04 07:03:48;;;;;;;1.25;0.50;;;8.50;99.90;;;;;;5072308;28;20028;-63
2023/01/04 07:06:13;;;;;;;0.57;0.43;;;8.60;99.90;;;;;;5073665;28;20473;-64
2023/01/04 07:08:39;;;;;;;0.60;0.30;;;8.60;99.90;;;;;;5071559;28;20100;-64
2023/01/04 07:11:05;;;;;;;1.85;0.50;;;8.60;99.90;;;;;;5072575;28;20400;-64
2023/01/04 07:13:30;;;;;;;0.40;0.30;;;8.60;99.90;;;;;;5074863;28;20036;-63
2023/01/04 07:15:56;;;;;;;0.45;0.40;;;8.60;99.90;;;;;;5072341;28;20032;-63
2023/01/04 07:18:22;;;;;;;0.75;0.30;;;8.60;99.90;;;;;;5074710;28;20032;-63
2023/01/04 07:20:47;;;;;;;0.75;0.38;;;8.70;99.90;;;;;;5069084;28;20028;-63
2023/01/04 07:23:13;;;;;;;0.98;0.20;;;8.70;99.90;;;;;;5073388;28;20024;-63
2023/01/04 07:25:38;;;;;;;0.20;0.20;;;8.70;99.90;;;;;;5073349;28;20016;-64
2023/01/04 07:28:04;;;;;;;0.25;0.25;;;8.70;99.90;;;;;;5074628;28;20028;-64
2023/01/04 07:30:30;;;;;;;0.47;0.25;;;8.70;99.90;;;;;;5071730;28;20116;-64
2023/01/04 07:32:56;;;;;;;0.43;0.30;;;8.70;99.90;;;;;;5072874;28;20033;-64
2023/01/04 07:35:23;;;;;;;0.20;0.20;;;8.60;99.90;;;;;;5070254;28;20041;-63
2023/01/04 07:37:49;;;;;;;0.35;0.20;;;8.70;99.90;;;;;;5067815;28;20036;-64
2023/01/04 07:40:15;;;;;;;0.30;0.30;;;8.70;99.90;;;;;;5069487;28;20146;-64
2023/01/04 07:42:40;;;;;;;0.68;0.30;;;8.70;99.90;;;;;;5072286;28;20146;-63
2023/01/04 07:45:06;;;;;;;0.60;0.52;;;8.80;99.90;;;;;;5069975;28;20024;-64
2023/01/04 07:47:32;;;;;;;0.25;0.25;;;8.80;99.90;;;;;;5064089;28;20025;-63
2023/01/04 07:49:59;;;;;;;0.63;0.40;;;8.80;99.90;;;;;;5059623;28;20031;-63
2023/01/04 07:52:25;;;;;;;0.52;0.30;;;8.80;99.90;;;;;;5068662;28;20051;-63
2023/01/04 07:54:51;;;;;;;17.48;8.15;;;8.80;99.90;;;;;;5071928;28;20032;-64
2023/01/04 07:57:16;;;;;;;14.45;8.60;;;8.80;99.90;;;;;;5062782;28;20028;-64
2023/01/04 07:59:42;;;;;;;2.65;2.30;;;8.80;99.90;;;;;;5056102;28;20020;-64
2023/01/04 08:02:12;;;;;;;2.45;2.13;;;8.80;99.90;;;;;;5066932;28;20371;-63
2023/01/04 08:04:38;;;;;;;1.88;1.50;;;8.80;99.90;;;;;;5071152;28;20025;-64
2023/01/04 08:07:03;;;;;;;1.08;0.65;;;8.90;99.90;;;;;;5068507;28;20405;-63
2023/01/04 08:09:29;;;;;;;0.63;0.52;;;8.90;99.90;;;;;;5070547;28;20036;-63
2023/01/04 08:11:54;;;;;;;1.05;0.93;;;8.80;99.90;;;;;;5069404;28;20044;-63
2023/01/04 08:14:20;;;;;;;1.10;0.68;;;8.90;99.90;;;;;;5069183;28;20024;-63
2023/01/04 08:16:45;;;;;;;0.47;0.47;;;8.90;99.90;;;;;;5058299;28;20134;-63
2023/01/04 08:19:20;;;;;;;0.38;0.38;;;8.90;99.90;;;;;;5071414;28;20086;-63
2023/01/04 08:21:45;;;;;;;;;;;8.90;99.90;;;;;;5072762;28;20051;-63
2023/01/04 08:24:16;;;;;;;0.40;0.32;;;8.90;99.90;;;;;;5079482;28;20421;-63
2023/01/04 08:26:43;;;;;;;0.70;0.57;;;8.90;99.90;;;;;;5041813;28;20044;-63
2023/01/04 08:29:09;;;;;;;0.80;0.70;;;9.00;99.90;;;;;;5068027;28;20025;-62
2023/01/04 08:31:35;;;;;;;0.60;0.60;;;9.00;99.90;;;;;;5075157;28;20074;-63
2023/01/04 08:34:03;;;;;;;1.10;0.60;;;9.00;99.90;;;;;;5069763;28;20025;-63
2023/01/04 08:36:31;;;;;;;1.00;0.47;;;9.00;99.90;;;;;;5071280;28;20032;-62
2023/01/04 08:38:59;;;;;;;0.65;0.50;;;9.10;99.90;;;;;;5068940;28;20047;-63
2023/01/04 08:41:25;;;;;;;0.30;0.30;;;9.10;99.90;;;;;;5076444;28;20051;-63
2023/01/04 08:43:51;;;;;;;0.40;0.40;;;9.10;99.90;;;;;;5061751;28;20052;-63
2023/01/04 08:46:17;;;;;;;0.32;0.32;;;9.10;99.90;;;;;;5068637;28;20032;-63
2023/01/04 08:48:42;;;;;;;1.60;0.35;;;9.10;99.90;;;;;;5069312;28;20044;-63
2023/01/04 08:51:13;;;;;;;0.50;0.35;;;9.10;99.90;;;;;;5068318;28;20036;-63
2023/01/04 08:53:39;;;;;;;0.40;0.40;;;9.10;99.90;;;;;;5069683;28;20062;-63
2023/01/04 08:56:06;;;;;;;0.68;0.45;;;9.20;99.90;;;;;;5052489;28;20052;-63
2023/01/04 08:58:33;;;;;;;2.05;0.43;;;9.20;99.90;;;;;;5067704;28;20036;-62
2023/01/04 09:01:01;;;;;;;1.00;0.40;;;9.20;99.90;;;;;;5067071;28;20028;-63
2023/01/04 09:03:27;;;;;;;0.40;0.40;;;9.20;99.90;;;;;;5048878;28;20036;-62
2023/01/04 09:05:53;;;;;;;0.77;0.60;;;9.20;99.90;;;;;;5065551;28;20031;-63
2023/01/04 09:08:18;;;;;;;0.47;0.35;;;9.20;99.90;;;;;;5070807;28;20452;-63
2023/01/04 09:10:44;;;;;;;0.63;0.50;;;9.30;99.90;;;;;;5058066;28;20020;-63
2023/01/04 09:13:09;;;;;;;0.40;0.40;;;9.20;99.90;;;;;;5065829;28;20032;-63
2023/01/04 09:15:35;;;;;;;0.40;0.40;;;9.30;99.90;;;;;;5070128;28;20143;-63
2023/01/04 09:18:02;;;;;;;0.45;0.40;;;9.30;99.90;;;;;;5067922;28;20654;-63
2023/01/04 09:20:27;;;;;;;0.82;0.40;;;9.40;99.90;;;;;;5074275;28;20482;-63
2023/01/04 09:22:55;;;;;;;0.52;0.50;;;9.40;99.90;;;;;;5066600;28;20070;-63
2023/01/04 09:25:20;;;;;;;0.40;0.40;;;9.40;99.90;;;;;;5066967;28;20024;-63
2023/01/04 09:27:46;;;;;;;0.60;0.60;;;9.40;99.90;;;;;;5056161;28;20044;-62
2023/01/04 09:30:12;;;;;;;0.38;0.38;;;9.40;99.90;;;;;;5067178;28;20454;-62
2023/01/04 09:32:38;;;;;;;0.90;0.68;;;9.40;99.90;;;;;;5067603;28;20032;-62
2023/01/04 09:35:03;;;;;;;0.70;0.65;;;9.40;99.90;;;;;;5067037;28;20028;-62
2023/01/04 09:37:29;;;;;;;0.45;0.40;;;9.50;99.90;;;;;;5058861;28;20059;-62
2023/01/04 09:39:54;;;;;;;5.70;2.03;;;9.50;99.90;;;;;;5060834;28;20683;-63
2023/01/04 09:42:27;;;;;;;9.95;6.05;;;9.50;99.90;;;;;;5061815;28;20061;-62
2023/01/04 09:45:00;;;;;;;2.00;1.80;;;9.50;99.90;;;;;;5068496;28;20012;-62
2023/01/04 09:47:37;;;;;;;15.73;8.00;;;9.50;99.90;;;;;;5067212;28;20044;-62
2023/01/04 09:50:31;;;;;;;12.70;3.72;;;9.60;99.90;;;;;;5069259;28;20032;-63
2023/01/04 09:53:07;;;;;;;3.78;2.33;;;9.60;99.90;;;;;;5045784;28;20124;-62
2023/01/04 09:55:42;;;;;;;7.05;3.45;;;9.70;99.90;;;;;;5060655;28;20051;-62
2023/01/04 09:58:33;;;;;;;2.95;1.38;;;9.80;99.90;;;;;;5059906;28;20028;-63
2023/01/04 10:01:15;;;;;;;5.15;2.15;;;9.80;99.90;;;;;;5057714;28;20021;-62
2023/01/04 10:04:19;;;;;;;2.65;1.40;;;9.90;99.90;;;;;;5059251;28;20441;-63
2023/01/04 10:06:45;;;;;;;13.95;6.28;;;9.90;99.90;;;;;;5044065;28;20104;-61
2023/01/04 10:09:13;;;;;;;6.40;3.35;;;10.00;99.90;;;;;;5058328;28;20173;-63
2023/01/04 10:11:58;;;;;;;1.55;0.70;;;10.00;99.90;;;;;;5061681;28;20055;-62
2023/01/04 10:14:29;;;;;;;1.65;1.27;;;10.10;99.90;;;;;;5046788;28;20509;-63
2023/01/04 10:17:14;;;;;;;8.00;3.60;;;10.20;99.90;;;;;;5061772;28;20024;-63
2023/01/04 10:20:03;;;;;;;16.50;5.47;;;10.30;99.90;;;;;;5074251;28;20048;-63
2023/01/04 10:22:34;;;;;;;11.05;3.92;;;10.40;99.90;;;;;;5065136;28;20051;-63
2023/01/04 10:25:18;;;;;;;9.88;4.00;;;10.40;99.90;;;;;;5046954;28;20390;-63
2023/01/04 10:27:59;;;;;;;9.52;2.97;;;10.50;99.90;;;;;;5053913;28;20114;-63
2023/01/04 10:30:33;;;;;;;5.47;3.72;;;10.50;99.90;;;;;;5063489;28;20548;-63
2023/01/04 10:33:19;;;;;;;3.70;1.83;;;10.60;99.90;;;;;;5064239;28;20025;-63
2023/01/04 10:35:45;;;;;;;5.30;1.00;;;10.60;99.90;;;;;;5067987;28;20025;-63
2023/01/04 10:38:24;;;;;;;2.53;1.55;;;10.60;99.90;;;;;;5063498;28;20023;-63
2023/01/04 10:40:50;;;;;;;10.07;4.80;;;10.70;99.90;;;;;;5063998;28;20048;-63
2023/01/04 10:43:22;;;;;;;2.95;1.45;;;10.70;99.90;;;;;;5068723;28;20021;-62
2023/01/04 10:46:04;;;;;;;1.77;1.10;;;10.70;99.90;;;;;;5061164;28;20027;-62
2023/01/04 10:48:49;;;;;;;1.20;0.95;;;10.70;99.90;;;;;;5061226;28;20025;-62
2023/01/04 10:51:21;;;;;;;0.85;0.77;;;10.70;99.90;;;;;;5066685;28;20032;-63
2023/01/04 10:53:57;;;;;;;1.40;1.02;;;10.70;99.90;;;;;;5061125;28;20170;-63
2023/01/04 10:56:45;;;;;;;3.13;0.80;;;10.60;99.90;;;;;;5065105;28;20024;-63
2023/01/04 10:59:41;;;;;;;3.47;1.02;;;10.60;99.90;;;;;;5060654;28;20036;-63
2023/01/04 11:02:23;;;;;;;2.50;1.05;;;10.60;99.90;;;;;;5054109;28;20064;-63
2023/01/04 11:05:12;;;;;;;0.75;0.73;;;10.60;99.90;;;;;;5058706;28;20078;-62
2023/01/04 11:07:43;;;;;;;1.45;0.65;;;10.60;99.90;;;;;;5061091;28;20397;-63
2023/01/04 11:10:18;;;;;;;0.50;0.50;;;10.50;99.90;;;;;;5067155;28;20029;-61
2023/01/04 11:12:44;;;;;;;2.40;1.70;;;10.60;99.90;;;;;;5066814;28;20025;-62
2023/01/04 11:15:10;;;;;;;1.13;1.00;;;10.50;99.90;;;;;;5064873;28;20020;-62
2023/01/04 11:17:36;;;;;;;3.08;1.13;;;10.50;99.90;;;;;;5066853;28;20101;-63
2023/01/04 11:20:03;;;;;;;1.85;0.95;;;10.40;99.90;;;;;;5068871;28;20493;-63
2023/01/04 11:22:51;;;;;;;2.03;1.20;;;10.40;99.90;;;;;;5065948;28;20122;-63
2023/01/04 11:25:20;;;;;;;2.72;0.82;;;10.40;99.90;;;;;;5073665;28;20021;-63
2023/01/04 11:28:12;;;;;;;2.22;0.80;;;10.30;99.90;;;;;;5051267;28;20425;-63
2023/01/04 11:31:03;;;;;;;0.95;0.40;;;10.30;99.90;;;;;;5065451;28;20028;-63
2023/01/04 11:33:29;;;;;;;0.50;0.50;;;10.30;99.90;;;;;;5070940;28;20498;-63
2023/01/04 11:35:57;;;;;;;1.80;1.20;;;10.20;99.90;;;;;;5071440;28;20099;-63
2023/01/04 11:38:28;;;;;;;4.75;2.53;;;10.20;99.90;;;;;;5065775;28;20553;-64
2023/01/04 11:41:06;;;;;;;4.57;2.13;;;10.20;99.90;;;;;;5067947;28;20043;-62
2023/01/04 11:43:34;;;;;;;6.07;2.10;;;10.20;99.90;;;;;;5065640;28;20110;-63
2023/01/04 11:46:06;;;;;;;3.38;1.63;;;10.20;99.90;;;;;;5066950;28;20020;-63
2023/01/04 11:48:41;;;;;;;2.72;1.50;;;10.30;99.90;;;;;;5068871;28;20033;-63
2023/01/04 11:51:18;;;;;;;1.75;1.23;;;10.30;99.90;;;;;;5068966;28;20075;-63
2023/01/04 11:53:44;;;;;;;1.63;0.70;;;10.30;99.90;;;;;;5068054;28;20021;-63
2023/01/04 11:56:10;;;;;;;0.43;0.43;;;10.40;99.90;;;;;;5069399;28;20028;-63
2023/01/04 11:58:36;;;;;;;1.35;0.95;;;10.40;99.90;;;;;;5064545;28;20024;-63
2023/01/04 12:01:01;;;;;;;0.65;0.65;;;10.40;99.90;;;;;;5070612;28;20081;-64
2023/01/04 12:03:39;;;;;;;1.50;1.05;;;10.40;99.90;;;;;;5070446;28;20103;-63
2023/01/04 12:06:17;;;;;;;0.40;0.40;;;10.50;99.90;;;;;;5069339;28;20029;-64
2023/01/04 12:08:43;;;;;;;1.02;0.80;;;10.50;99.90;;;;;;5066942;28;20112;-63
2023/01/04 12:11:19;;;;;;;0.98;0.85;;;10.60;99.90;;;;;;5072891;28;20157;-64
2023/01/04 12:13:45;;;;;;;2.10;1.10;;;10.60;99.90;;;;;;5062641;28;20024;-63
2023/01/04 12:16:24;;;;;;;1.63;0.80;;;10.60;99.90;;;;;;5061163;28;20501;-63
2023/01/04 12:18:50;;;;;;;0.73;0.60;;;10.70;99.90;;;;;;5060264;28;20036;-64
2023/01/04 12:21:21;;;;;;;1.02;0.60;;;10.70;99.90;;;;;;5062284;28;20185;-63
2023/01/04 12:23:47;;;;;;;1.02;0.68;;;10.70;99.90;;;;;;5066202;28;20021;-63
2023/01/04 12:26:14;;;;;;;1.38;0.68;;;10.80;99.90;;;;;;5066237;28;20024;-63
2023/01/04 12:28:44;;;;;;;0.75;0.43;;;10.80;99.90;;;;;;5048690;28;20040;-63
2023/01/04 12:31:19;;;;;;;1.52;0.75;;;10.80;99.90;;;;;;5068444;28;20052;-64
2023/01/04 12:33:46;;;;;;;0.68;0.60;;;10.80;99.90;;;;;;5068887;28;20028;-63
2023/01/04 12:36:14;;;;;;;1.55;0.82;;;10.80;99.90;;;;;;5063118;28;20032;-64
2023/01/04 12:39:13;;;;;;;0.65;0.50;;;10.80;99.90;;;;;;5063711;28;20059;-62
2023/01/04 12:41:39;;;;;;;1.30;0.70;;;10.80;99.90;;;;;;5065751;28;20016;-63
2023/01/04 12:44:35;;;;;;;1.20;0.45;;;10.80;99.90;;;;;;5068530;28;20034;-63
2023/01/04 12:49:58;;;;;;;0.50;0.50;;;10.90;99.90;;;;;;5063638;28;20043;-63
2023/01/04 12:52:23;;;;;;;0.30;0.30;;;10.90;99.90;;;;;;5067616;28;20032;-64
2023/01/04 12:54:59;;;;;;;0.57;0.50;;;10.80;99.90;;;;;;5067549;28;20020;-64
2023/01/04 12:57:36;;;;;;;28.20;8.88;;;10.80;99.90;;;;;;5067650;28;20024;-63
2023/01/04 13:00:05;;;;;;;2.20;1.25;;;10.80;99.90;;;;;;5061898;28;20044;-64
2023/01/04 13:02:51;;;;;;;0.55;0.55;;;10.80;99.90;;;;;;5042623;28;20037;-63
2023/01/04 13:05:17;;;;;;;1.27;1.13;;;10.80;99.90;;;;;;5041655;28;20036;-64
2023/01/04 13:07:44;;;;;;;0.50;0.50;;;10.80;99.90;;;;;;5047289;28;20025;-63
2023/01/04 13:10:34;;;;;;;1.05;0.75;;;10.80;99.90;;;;;;5020127;28;20020;-63
2023/01/04 13:13:22;;;;;;;0.88;0.73;;;10.90;99.90;;;;;;5019350;28;20028;-63
2023/01/04 13:15:53;;;;;;;0.68;0.60;;;10.90;99.90;;;;;;5032411;28;20036;-63
2023/01/04 13:18:24;;;;;;;0.85;0.60;;;10.90;99.90;;;;;;5046031;28;20124;-63
2023/01/04 13:20:50;;;;;;;0.50;0.50;;;10.90;99.90;;;;;;5049088;28;20033;-64
2023/01/04 13:23:16;;;;;;;0.40;0.40;;;10.90;99.90;;;;;;5040690;28;20033;-63
2023/01/04 13:25:41;;;;;;;0.52;0.52;;;10.90;99.90;;;;;;5045352;28;20021;-64
2023/01/04 13:28:16;;;;;;;0.45;0.45;;;11.00;99.90;;;;;;5027895;28;20715;-63
2023/01/04 13:30:41;;;;;;;0.57;0.32;;;11.00;99.90;;;;;;5043691;28;20029;-63
2023/01/04 13:33:19;;;;;;;2.35;0.50;;;11.00;99.90;;;;;;5047186;28;20032;-64
2023/01/04 13:36:01;;;;;;;0.40;0.40;;;11.00;99.90;;;;;;5040616;28;20033;-63
2023/01/04 13:38:28;;;;;;;2.42;0.40;;;11.00;99.90;;;;;;5037254;28;20041;-64
2023/01/04 13:40:54;;;;;;;0.45;0.43;;;11.00;99.90;;;;;;5041408;28;20029;-63
2023/01/04 13:43:53;;;;;;;0.47;0.47;;;11.00;99.90;;;;;;5039210;28;20035;-62
2023/01/04 13:46:23;;;;;;;0.50;0.50;;;11.00;99.90;;;;;;5046663;28;20025;-62
2023/01/04 13:48:52;;;;;;;1.55;0.43;;;11.00;99.90;;;;;;5041981;28;20017;-63
2023/01/04 13:51:25;;;;;;;0.60;0.43;;;11.00;99.90;;;;;;5052634;28;20050;-63
2023/01/04 13:54:02;;;;;;;0.65;0.40;;;11.00;99.90;;;;;;5026245;28;20022;-63
2023/01/04 13:56:30;;;;;;;0.40;0.35;;;11.00;99.90;;;;;;5047783;28;20503;-64
2023/01/04 13:58:56;;;;;;;0.90;0.43;;;11.00;99.90;;;;;;5047252;28;20033;-64